Farm — LBHF — position and weather

sailwx.info

Track history (hours):
 
Tides and Currents Weather Stations Pressure Air Temp Water Temp Dewpoint Dewpoint Depression Visibility Wind Speed Wind Dir Waves Ship Positions

Farm

Last reported at 2014-Jul-22 11:14 UTC. Time now 2014-Jul-28 06:14 UTC.
Position N 70°35' E 023°36'.

Length 46 m; draft 5 m.

Type: Law enforcement. MMSI: 257069200.

Date/timePositionNaut miles runAvg speedWind from/ knotsBaromVisibWave heightAir tempDewpointWater temp
2014-Jul-22 11:14N 70°35' E 023°36'4 5.5
2014-Jul-22 10:28N 70°39' E 023°37'1 0.9
2014-Jul-22 09:09N 70°40' E 023°41'0 0.0
2014-Jul-22 08:21N 70°40' E 023°41'2 1.8
2014-Jul-22 07:31N 70°40' E 023°36'5 5.5
2014-Jul-22 06:32N 70°41' E 023°21'3 2.3
2014-Jul-22 05:09N 70°39' E 023°12'0 0.4
2014-Jul-22 04:33N 70°40' E 023°13'1 1.1
2014-Jul-22 03:15N 70°38' E 023°11'2 0.9
2014-Jul-22 01:25N 70°39' E 023°15'2 1.5
2014-Jul-22 00:21N 70°40' E 023°19'2 2.0
2014-Jul-21 23:33N 70°40' E 023°24'  
2014-Jul-19 17:33N 70°43' E 023°31'  
2014-Jul-14 17:33N 69°38' E 018°56'3 1.4
2014-Jul-14 15:24N 69°35' E 018°54'2 2.6
2014-Jul-14 14:33N 69°37' E 018°55'0 0.3
2014-Jul-14 13:30N 69°37' E 018°55'4 3.9
2014-Jul-14 12:32N 69°41' E 019°00'0 0.3
2014-Jul-14 11:21N 69°41' E 018°59'0 0.4
2014-Jul-14 10:31N 69°40' E 018°60'0 0.2
2014-Jul-14 09:33N 69°40' E 018°59'0 0.2
2014-Jul-14 08:33N 69°40' E 018°59'1 0.6
2014-Jul-14 07:33N 69°41' E 018°59'2 1.9
2014-Jul-14 06:33N 69°42' E 019°03'1 0.1
2014-Jul-13 10:30N 69°44' E 019°04'4 4.1
2014-Jul-13 09:32N 69°40' E 018°59'0 0.2
2014-Jul-13 08:34N 69°40' E 018°60'0 0.1
2014-Jul-13 07:33N 69°40' E 018°60'2 1.6
2014-Jul-13 06:33N 69°41' E 019°02'  
Track history (hours):
 
Tides and Currents Weather Stations Pressure Air Temp Water Temp Dewpoint Dewpoint Depression Visibility Wind Speed Wind Dir Waves Ship Positions

Farm

Last reported at 2014-Jul-22 11:14 UTC. Time now 2014-Jul-28 06:14 UTC.
Position N 70°35' E 023°36'.

Length 46 m; draft 5 m.

Type: Law enforcement. MMSI: 257069200.

Date/timePositionNaut miles runAvg speedWind from/ knotsBaromVisibWave heightAir tempDewpointWater temp
2014-Jul-22 11:14N 70°35' E 023°36'4 5.5
2014-Jul-22 10:28N 70°39' E 023°37'1 0.9
2014-Jul-22 09:09N 70°40' E 023°41'0 0.0
2014-Jul-22 08:21N 70°40' E 023°41'2 1.8
2014-Jul-22 07:31N 70°40' E 023°36'5 5.5
2014-Jul-22 06:32N 70°41' E 023°21'3 2.3
2014-Jul-22 05:09N 70°39' E 023°12'0 0.4
2014-Jul-22 04:33N 70°40' E 023°13'1 1.1
2014-Jul-22 03:15N 70°38' E 023°11'2 0.9
2014-Jul-22 01:25N 70°39' E 023°15'2 1.5
2014-Jul-22 00:21N 70°40' E 023°19'2 2.0
2014-Jul-21 23:33N 70°40' E 023°24'  
2014-Jul-19 17:33N 70°43' E 023°31'  
2014-Jul-14 17:33N 69°38' E 018°56'3 1.4
2014-Jul-14 15:24N 69°35' E 018°54'2 2.6
2014-Jul-14 14:33N 69°37' E 018°55'0 0.3
2014-Jul-14 13:30N 69°37' E 018°55'4 3.9
2014-Jul-14 12:32N 69°41' E 019°00'0 0.3
2014-Jul-14 11:21N 69°41' E 018°59'0 0.4
2014-Jul-14 10:31N 69°40' E 018°60'0 0.2
2014-Jul-14 09:33N 69°40' E 018°59'0 0.2
2014-Jul-14 08:33N 69°40' E 018°59'1 0.6
2014-Jul-14 07:33N 69°41' E 018°59'2 1.9
2014-Jul-14 06:33N 69°42' E 019°03'1 0.1
2014-Jul-13 10:30N 69°44' E 019°04'4 4.1
2014-Jul-13 09:32N 69°40' E 018°59'0 0.2
2014-Jul-13 08:34N 69°40' E 018°60'0 0.1
2014-Jul-13 07:33N 69°40' E 018°60'2 1.6
2014-Jul-13 06:33N 69°41' E 019°02'  

Dump ship's entire track history